Time;durP1;ratioP1;P1;durP2;ratioP2;P2;SDS_P1;SDS_P2;PMS_P1;PMS_P2;Temp;Humidity;BMP_temperature;BMP_pressure;BME280_temperature;BME280_humidity;BME280_pressure;Samples;Min_cycle;Max_cycle;Signal;HPM_P1;HPM_P2
2022/04/07 00:01:42;;;;;;;36.37;7.33;;;9.80;99.90;;;;;;5068669;28;20201;-82
2022/04/07 00:04:09;;;;;;;37.17;7.90;;;9.80;99.90;;;;;;5068555;28;20241;-81
2022/04/07 00:06:37;;;;;;;41.70;8.43;;;9.80;99.90;;;;;;5068507;28;20248;-80
2022/04/07 00:09:04;;;;;;;42.13;9.43;;;9.80;99.90;;;;;;5068026;28;20213;-81
2022/04/07 00:11:31;;;;;;;36.97;8.83;;;9.80;99.90;;;;;;5069566;28;20197;-82
2022/04/07 00:13:59;;;;;;;49.60;9.93;;;9.90;99.90;;;;;;5090636;28;20268;-82
2022/04/07 00:16:26;;;;;;;36.47;7.87;;;9.90;99.90;;;;;;5091276;28;20192;-81
2022/04/07 00:18:53;;;;;;;37.17;8.30;;;9.90;99.90;;;;;;5088024;28;20443;-81
2022/04/07 00:21:25;;;;;;;41.43;8.80;;;9.90;99.90;;;;;;5072083;28;20209;-80
2022/04/07 00:23:52;;;;;;;46.37;8.87;;;9.90;99.90;;;;;;5070447;28;20205;-80
2022/04/07 00:26:19;;;;;;;47.27;9.67;;;9.90;99.90;;;;;;5069201;28;20224;-82
2022/04/07 00:28:46;;;;;;;39.00;8.60;;;9.90;99.90;;;;;;5068270;28;20212;-81
2022/04/07 00:31:14;;;;;;;50.70;10.13;;;9.90;99.90;;;;;;5066699;28;20220;-80
2022/04/07 00:33:41;;;;;;;40.30;8.60;;;9.90;99.90;;;;;;5066184;28;20201;-81
2022/04/07 00:36:08;;;;;;;45.03;9.27;;;9.90;99.90;;;;;;5066345;28;20213;-81
2022/04/07 00:38:35;;;;;;;36.63;7.30;;;9.90;99.90;;;;;;5066228;28;20201;-80
2022/04/07 00:41:02;;;;;;;43.23;8.20;;;9.90;99.90;;;;;;5066030;28;20205;-81
2022/04/07 00:43:30;;;;;;;43.17;9.20;;;9.90;99.90;;;;;;5074224;28;20208;-83
2022/04/07 00:45:57;;;;;;;40.17;8.60;;;9.90;99.90;;;;;;5086281;28;20343;-80
2022/04/07 00:48:26;;;;;;;41.63;7.13;;;9.90;99.90;;;;;;5086971;28;20223;-82
2022/04/07 00:50:53;;;;;;;37.77;8.53;;;9.90;99.90;;;;;;5074450;28;20228;-80
2022/04/07 00:53:20;;;;;;;48.30;8.27;;;9.90;99.90;;;;;;5065303;28;20635;-79
2022/04/07 00:55:50;;;;;;;38.83;8.27;;;9.90;99.90;;;;;;5078937;28;20236;-82
2022/04/07 00:58:18;;;;;;;46.10;9.27;;;9.80;99.90;;;;;;5086814;28;20193;-79
2022/04/07 01:00:45;;;;;;;57.70;8.30;;;9.90;99.90;;;;;;5085832;28;20510;-81
2022/04/07 01:03:12;;;;;;;36.53;9.07;;;9.90;99.90;;;;;;5074263;28;20201;-80
2022/04/07 01:05:41;;;;;;;42.53;7.33;;;9.90;99.90;;;;;;5066310;28;20611;-82
2022/04/07 01:08:09;;;;;;;37.13;9.47;;;9.90;99.90;;;;;;5065211;28;20207;-80
2022/04/07 01:10:36;;;;;;;43.27;7.60;;;9.90;99.90;;;;;;5066345;28;20197;-83
2022/04/07 01:13:04;;;;;;;41.60;7.53;;;9.90;99.90;;;;;;5066522;28;20201;-81
2022/04/07 01:15:31;;;;;;;41.67;9.77;;;9.90;99.90;;;;;;5065203;28;20205;-81
2022/04/07 01:17:58;;;;;;;38.40;7.60;;;9.90;99.90;;;;;;5065698;28;20660;-80
2022/04/07 01:20:26;;;;;;;39.33;7.80;;;9.90;99.90;;;;;;5064399;28;20208;-81
2022/04/07 01:22:55;;;;;;;33.43;8.00;;;9.90;99.90;;;;;;5065227;28;20209;-81
2022/04/07 01:25:25;;;;;;;33.37;7.43;;;9.80;99.90;;;;;;5065420;28;20209;-80
2022/04/07 01:27:51;;;;;;;43.97;8.03;;;9.90;99.90;;;;;;5064843;28;20221;-83
2022/04/07 01:30:18;;;;;;;47.20;8.13;;;9.80;99.90;;;;;;5065126;28;20193;-80
2022/04/07 01:32:48;;;;;;;48.27;8.67;;;9.90;99.90;;;;;;5065143;28;20209;-82
2022/04/07 01:35:15;;;;;;;42.00;8.77;;;9.80;99.90;;;;;;5064329;28;20481;-79
2022/04/07 01:37:45;;;;;;;39.63;9.07;;;9.80;99.90;;;;;;5065899;28;20228;-80
2022/04/07 01:40:14;;;;;;;47.33;8.90;;;9.80;99.90;;;;;;5065639;28;20204;-82
2022/04/07 01:42:45;;;;;;;44.23;7.87;;;9.80;99.90;;;;;;5065107;28;20287;-81
2022/04/07 01:45:15;;;;;;;46.30;8.33;;;9.80;99.90;;;;;;5065372;28;20291;-80
2022/04/07 01:47:43;;;;;;;46.20;8.93;;;9.80;99.90;;;;;;5072081;28;20307;-81
2022/04/07 01:50:11;;;;;;;54.20;10.67;;;9.80;99.90;;;;;;5083627;28;20326;-80
2022/04/07 01:52:39;;;;;;;36.60;8.30;;;9.90;99.90;;;;;;5085040;28;20196;-82
2022/04/07 01:55:07;;;;;;;42.57;8.47;;;9.80;99.90;;;;;;5085396;28;20204;-82
2022/04/07 01:57:34;;;;;;;41.23;8.30;;;9.90;99.90;;;;;;5078798;28;20838;-81
2022/04/07 02:00:05;;;;;;;46.53;8.80;;;9.90;99.90;;;;;;5080983;28;20204;-80
2022/04/07 02:02:32;;;;;;;38.17;8.43;;;9.90;99.90;;;;;;5085035;28;20200;-81
2022/04/07 02:05:00;;;;;;;41.53;9.07;;;9.90;99.90;;;;;;5085694;28;20208;-82
2022/04/07 02:07:30;;;;;;;47.70;8.97;;;9.90;99.90;;;;;;5084697;28;20235;-82
2022/04/07 02:09:57;;;;;;;40.53;8.83;;;9.90;99.90;;;;;;5085331;28;20196;-81
2022/04/07 02:12:26;;;;;;;39.77;8.47;;;9.90;99.90;;;;;;5076267;28;20208;-81
2022/04/07 02:14:52;;;;;;;50.67;12.07;;;9.90;99.90;;;;;;5065495;28;20294;-82
2022/04/07 02:17:22;;;;;;;60.47;10.27;;;9.90;99.90;;;;;;5064625;28;20197;-82
2022/04/07 02:19:50;;;;;;;50.30;10.77;;;9.90;99.90;;;;;;5064882;28;20859;-81
2022/04/07 02:22:17;;;;;;;43.47;8.37;;;9.90;99.90;;;;;;5065047;28;20224;-84
2022/04/07 02:24:44;;;;;;;47.63;10.10;;;9.90;99.90;;;;;;5064822;28;20381;-81
2022/04/07 02:27:10;;;;;;;37.73;8.33;;;9.90;99.90;;;;;;5065598;28;20227;-81
2022/04/07 02:29:38;;;;;;;49.70;10.77;;;9.90;99.90;;;;;;5066191;28;20201;-82
2022/04/07 02:32:06;;;;;;;43.57;9.40;;;9.90;99.90;;;;;;5065623;28;20212;-81
2022/04/07 02:34:34;;;;;;;46.17;10.23;;;9.90;99.90;;;;;;5064440;28;20200;-81
2022/04/07 02:37:01;;;;;;;63.33;12.77;;;9.90;99.90;;;;;;5084952;28;20223;-82
2022/04/07 02:39:28;;;;;;;51.27;10.53;;;9.90;99.90;;;;;;5084298;28;20197;-83
2022/04/07 02:41:54;;;;;;;56.80;11.23;;;9.90;99.90;;;;;;5086467;28;20498;-82
2022/04/07 02:44:21;;;;;;;64.83;11.70;;;9.90;99.90;;;;;;5081348;28;20211;-84
2022/04/07 02:46:48;;;;;;;55.43;11.83;;;9.90;99.90;;;;;;5066018;28;20228;-82
2022/04/07 02:49:15;;;;;;;54.30;10.60;;;9.90;99.90;;;;;;5087614;28;20832;-80
2022/04/07 02:51:43;;;;;;;55.67;10.53;;;9.90;99.90;;;;;;5090630;28;20224;-81
2022/04/07 02:54:10;;;;;;;55.30;11.30;;;10.00;99.90;;;;;;5083844;28;20668;-83
2022/04/07 02:56:37;;;;;;;52.07;10.30;;;10.00;99.90;;;;;;5069838;28;20807;-83
2022/04/07 02:59:04;;;;;;;51.73;10.07;;;10.00;99.90;;;;;;5069229;28;20208;-82
2022/04/07 03:01:31;;;;;;;65.47;12.03;;;10.00;99.90;;;;;;5068913;28;20494;-81
2022/04/07 03:03:59;;;;;;;54.40;10.63;;;10.00;99.90;;;;;;5069293;28;20216;-82
2022/04/07 03:06:26;;;;;;;55.47;11.87;;;10.00;99.90;;;;;;5069301;28;20260;-83
2022/04/07 03:08:54;;;;;;;48.10;10.43;;;10.00;99.90;;;;;;5069219;28;20208;-81
2022/04/07 03:11:21;;;;;;;53.27;12.17;;;10.00;99.90;;;;;;5068927;28;20216;-81
2022/04/07 03:13:48;;;;;;;61.93;11.83;;;10.00;99.90;;;;;;5069742;28;20248;-82
2022/04/07 03:16:14;;;;;;;60.10;11.50;;;10.00;99.90;;;;;;5068738;28;20213;-81
2022/04/07 03:18:41;;;;;;;47.67;11.13;;;10.00;99.90;;;;;;5068902;28;20209;-82
2022/04/07 03:21:08;;;;;;;46.87;9.97;;;10.00;99.90;;;;;;5068655;28;20194;-78
2022/04/07 03:23:35;;;;;;;55.60;11.30;;;10.00;99.90;;;;;;5068653;28;20205;-81
2022/04/07 03:26:03;;;;;;;53.27;10.40;;;10.00;99.90;;;;;;5069480;28;20205;-79
2022/04/07 03:28:30;;;;;;;57.87;11.03;;;10.00;99.90;;;;;;5068571;28;20232;-80
2022/04/07 03:30:57;;;;;;;56.97;10.43;;;10.00;99.90;;;;;;5069004;28;20284;-80
2022/04/07 03:33:24;;;;;;;54.93;10.43;;;10.00;99.90;;;;;;5067613;28;20228;-78
2022/04/07 03:35:51;;;;;;;45.83;11.57;;;10.00;99.90;;;;;;5071163;28;20229;-80
2022/04/07 03:38:18;;;;;;;41.67;9.17;;;10.00;99.90;;;;;;5072983;28;20211;-80
2022/04/07 03:40:44;;;;;;;49.30;10.10;;;9.90;99.90;;;;;;5088123;28;20200;-78
2022/04/07 03:43:13;;;;;;;45.03;8.83;;;9.90;99.90;;;;;;5076413;28;20217;-79
2022/04/07 03:45:39;;;;;;;61.50;11.27;;;9.90;99.90;;;;;;5085029;28;20215;-80
2022/04/07 03:48:07;;;;;;;57.07;10.47;;;9.90;99.90;;;;;;5087403;28;20224;-79
2022/04/07 03:50:34;;;;;;;38.00;8.40;;;9.90;99.90;;;;;;5070672;28;20209;-80
2022/04/07 03:53:01;;;;;;;39.47;9.40;;;9.80;99.90;;;;;;5066897;28;20212;-81
2022/04/07 03:55:28;;;;;;;48.60;9.83;;;9.80;99.90;;;;;;5067919;28;20562;-82
2022/04/07 03:57:55;;;;;;;37.90;7.60;;;9.80;99.90;;;;;;5068641;28;20232;-81
2022/04/07 04:00:25;;;;;;;46.63;9.50;;;9.80;99.90;;;;;;5068152;28;20201;-81
2022/04/07 04:02:52;;;;;;;32.27;7.10;;;9.80;99.90;;;;;;5077140;28;20236;-80
2022/04/07 04:05:20;;;;;;;28.80;6.63;;;9.80;99.90;;;;;;5089444;28;20205;-81
2022/04/07 04:07:48;;;;;;;34.40;6.80;;;9.70;99.90;;;;;;5071403;28;20270;-81
2022/04/07 04:10:15;;;;;;;29.90;7.77;;;9.60;99.90;;;;;;5065779;28;20674;-80
2022/04/07 04:12:41;;;;;;;30.87;8.10;;;9.60;99.90;;;;;;5067798;28;20702;-80
2022/04/07 04:15:09;;;;;;;35.33;7.90;;;9.50;99.90;;;;;;5068893;28;20883;-82
2022/04/07 04:17:37;;;;;;;13.87;2.60;;;9.40;99.90;;;;;;5068452;28;20205;-79
2022/04/07 04:20:05;;;;;;;20.87;4.47;;;8.80;99.90;;;;;;5067915;28;20291;-78
2022/04/07 04:22:33;;;;;;;22.43;5.03;;;8.20;99.90;;;;;;5067035;28;20208;-78
2022/04/07 04:25:00;;;;;;;19.73;4.07;;;7.60;99.90;;;;;;5066025;28;20213;-77
2022/04/07 04:27:26;;;;;;;25.70;5.03;;;7.10;99.90;;;;;;5066427;28;20314;-78
2022/04/07 04:29:53;;;;;;;29.50;4.87;;;6.70;99.90;;;;;;5066023;28;20432;-82
2022/04/07 04:32:20;;;;;;;23.07;4.07;;;6.50;99.90;;;;;;5065318;28;20205;-76
2022/04/07 04:34:48;;;;;;;20.57;3.63;;;6.40;99.90;;;;;;5066823;28;20516;-77
2022/04/07 04:37:15;;;;;;;15.87;2.93;;;6.40;99.90;;;;;;5066028;28;20236;-78
2022/04/07 04:39:42;;;;;;;12.87;2.50;;;6.40;99.90;;;;;;5067787;28;20746;-79
2022/04/07 04:42:09;;;;;;;15.00;2.80;;;6.40;99.90;;;;;;5066716;28;20201;-79
2022/04/07 04:44:36;;;;;;;15.57;2.93;;;6.30;99.90;;;;;;5066177;28;20209;-80
2022/04/07 04:47:04;;;;;;;10.83;2.27;;;6.30;99.90;;;;;;5067085;28;20208;-79
2022/04/07 04:49:31;;;;;;;21.13;4.17;;;6.40;99.90;;;;;;5067888;28;20201;-80
2022/04/07 04:51:59;;;;;;;15.20;3.43;;;6.40;99.90;;;;;;5067156;28;20322;-79
2022/04/07 04:54:25;;;;;;;19.07;3.10;;;6.40;99.90;;;;;;5066854;28;20913;-82
2022/04/07 04:56:52;;;;;;;15.90;3.30;;;6.40;99.90;;;;;;5067075;28;20303;-80
2022/04/07 04:59:19;;;;;;;21.17;5.53;;;6.50;99.90;;;;;;5066209;28;20197;-80
2022/04/07 05:01:46;;;;;;;25.33;6.60;;;6.50;99.90;;;;;;5067400;28;20219;-80
2022/04/07 05:04:12;;;;;;;23.77;6.47;;;6.50;99.90;;;;;;5067254;28;20205;-79
2022/04/07 05:06:39;;;;;;;27.03;6.87;;;6.50;99.90;;;;;;5067153;28;20216;-79
2022/04/07 05:09:08;;;;;;;29.73;7.43;;;6.50;99.90;;;;;;5065448;28;20225;-80
2022/04/07 05:11:34;;;;;;;25.53;4.97;;;6.50;99.90;;;;;;5066700;28;20217;-81
2022/04/07 05:14:02;;;;;;;23.10;5.83;;;6.50;99.90;;;;;;5065400;28;20248;-80
2022/04/07 05:16:28;;;;;;;23.03;6.60;;;6.50;99.90;;;;;;5066188;28;20262;-80
2022/04/07 05:18:56;;;;;;;28.23;6.37;;;6.50;99.90;;;;;;5066474;28;20391;-80
2022/04/07 05:21:23;;;;;;;28.07;7.40;;;6.50;99.90;;;;;;5066106;28;20216;-79
2022/04/07 05:23:49;;;;;;;33.40;10.40;;;6.40;99.90;;;;;;5066313;28;21002;-78
2022/04/07 05:26:18;;;;;;;31.67;6.83;;;6.40;99.90;;;;;;5066013;28;20201;-79
2022/04/07 05:28:44;;;;;;;30.70;6.20;;;6.40;99.90;;;;;;5065723;28;20655;-80
2022/04/07 05:31:12;;;;;;;33.13;7.30;;;6.50;99.90;;;;;;5066518;28;20229;-80
2022/04/07 05:33:39;;;;;;;27.53;6.67;;;6.50;99.90;;;;;;5067454;28;20771;-80
2022/04/07 05:36:05;;;;;;;37.47;6.23;;;6.50;99.90;;;;;;5086515;28;20224;-80
2022/04/07 05:38:33;;;;;;;34.73;7.17;;;6.60;99.90;;;;;;5085768;28;20576;-80
2022/04/07 05:41:00;;;;;;;29.03;5.63;;;6.60;99.90;;;;;;5078504;28;20201;-81
2022/04/07 05:43:28;;;;;;;30.33;6.77;;;6.70;99.90;;;;;;5065074;28;20221;-81
2022/04/07 05:45:55;;;;;;;30.53;6.50;;;6.70;99.90;;;;;;5066403;28;20201;-81
2022/04/07 05:48:22;;;;;;;22.87;5.03;;;6.80;99.90;;;;;;5074690;28;20227;-79
2022/04/07 05:50:48;;;;;;;14.63;3.63;;;6.90;99.90;;;;;;5066348;28;20208;-79
2022/04/07 05:53:16;;;;;;;14.67;3.37;;;6.90;99.90;;;;;;5066235;28;20216;-80
2022/04/07 05:55:43;;;;;;;16.43;3.83;;;6.90;99.90;;;;;;5065964;28;20231;-81
2022/04/07 05:58:10;;;;;;;14.83;2.33;;;7.00;99.90;;;;;;5066693;28;20209;-80
2022/04/07 06:00:38;;;;;;;11.40;3.07;;;7.00;99.90;;;;;;5066707;28;20440;-80
2022/04/07 06:03:05;;;;;;;14.17;3.93;;;7.10;99.90;;;;;;5065851;28;20205;-81
2022/04/07 06:05:31;;;;;;;18.17;3.57;;;7.10;99.90;;;;;;5066452;28;20207;-80
2022/04/07 06:07:59;;;;;;;12.80;2.80;;;7.20;99.90;;;;;;5065863;28;20228;-81
2022/04/07 06:10:26;;;;;;;14.00;2.77;;;7.20;99.90;;;;;;5063326;28;20574;-80
2022/04/07 06:12:54;;;;;;;9.10;2.40;;;7.20;99.90;;;;;;5064683;28;20209;-79
2022/04/07 06:15:21;;;;;;;9.60;3.43;;;7.20;99.90;;;;;;5079794;28;20236;-80
2022/04/07 06:17:50;;;;;;;11.80;1.90;;;7.20;99.90;;;;;;5085961;28;20858;-79
2022/04/07 06:20:31;;;;;;;6.30;1.67;;;7.30;99.90;;;;;;5035235;28;20722;-82
2022/04/07 06:22:58;;;;;;;13.67;4.23;;;7.30;99.90;;;;;;5080651;28;20201;-77
2022/04/07 06:25:25;;;;;;;14.67;2.30;;;7.30;99.90;;;;;;5064549;28;20201;-77
2022/04/07 06:27:52;;;;;;;11.90;2.97;;;7.30;99.90;;;;;;5067469;28;20260;-78
2022/04/07 06:30:21;;;;;;;11.97;2.40;;;7.30;99.90;;;;;;5084508;28;20327;-78
2022/04/07 06:32:49;;;;;;;10.57;2.70;;;7.40;99.90;;;;;;5085340;28;20215;-77
2022/04/07 06:35:17;;;;;;;10.10;2.17;;;7.40;99.90;;;;;;5068170;28;20882;-80
2022/04/07 06:37:49;;;;;;;7.70;3.17;;;7.40;99.90;;;;;;5062331;28;20521;-78
2022/04/07 06:40:18;;;;;;;13.53;2.43;;;7.40;99.90;;;;;;5071008;28;20570;-79
2022/04/07 06:42:45;;;;;;;14.07;2.77;;;7.50;99.90;;;;;;5084717;28;20197;-81
2022/04/07 06:45:12;;;;;;;13.47;2.97;;;7.50;99.90;;;;;;5083445;28;20208;-77
2022/04/07 06:47:39;;;;;;;12.10;2.07;;;7.50;99.90;;;;;;5072944;28;20205;-81
2022/04/07 06:50:10;;;;;;;8.70;1.87;;;7.50;99.90;;;;;;5081364;28;20319;-80
2022/04/07 06:52:37;;;;;;;12.97;2.67;;;7.60;99.90;;;;;;5063435;28;20427;-81
2022/04/07 06:55:05;;;;;;;9.77;3.00;;;7.50;99.90;;;;;;5062240;28;20225;-81
2022/04/07 06:57:31;;;;;;;10.90;2.60;;;7.60;99.90;;;;;;5064055;28;20209;-81
2022/04/07 06:59:58;;;;;;;8.70;2.87;;;7.70;99.90;;;;;;5081650;28;20254;-81
2022/04/07 07:02:25;;;;;;;15.50;3.67;;;7.70;99.90;;;;;;5083806;28;20209;-81
2022/04/07 07:04:52;;;;;;;11.03;3.20;;;7.80;99.90;;;;;;5083264;28;20209;-80
2022/04/07 07:07:20;;;;;;;14.47;2.57;;;7.80;99.90;;;;;;5083776;28;20780;-80
2022/04/07 07:09:47;;;;;;;12.47;2.87;;;7.90;99.90;;;;;;5084987;28;20235;-80
2022/04/07 07:12:14;;;;;;;10.10;2.30;;;8.00;99.90;;;;;;5064754;28;20216;-79
2022/04/07 07:14:41;;;;;;;14.00;3.00;;;8.10;99.90;;;;;;5064959;28;20237;-81
2022/04/07 07:17:08;;;;;;;10.87;2.83;;;8.20;99.90;;;;;;5072309;28;20216;-80
2022/04/07 07:19:35;;;;;;;10.10;2.50;;;8.20;99.90;;;;;;5085085;28;20576;-79
2022/04/07 07:22:01;;;;;;;14.97;3.33;;;8.30;99.90;;;;;;5068987;28;20913;-80
2022/04/07 07:24:29;;;;;;;10.33;2.57;;;8.30;99.90;;;;;;5085259;28;20209;-80
2022/04/07 07:26:56;;;;;;;12.90;2.73;;;8.30;99.90;;;;;;5075945;28;20221;-79
2022/04/07 07:29:23;;;;;;;13.60;3.10;;;8.30;99.90;;;;;;5062831;28;20236;-81
2022/04/07 07:31:50;;;;;;;21.57;4.17;;;8.40;99.90;;;;;;5063155;28;20240;-78
2022/04/07 07:34:16;;;;;;;14.80;2.80;;;8.50;99.90;;;;;;5066179;28;20608;-77
2022/04/07 07:36:43;;;;;;;17.30;3.00;;;8.50;99.90;;;;;;5068807;28;20225;-81
2022/04/07 07:39:10;;;;;;;12.57;3.10;;;8.60;99.90;;;;;;5070726;28;20212;-79
2022/04/07 07:41:40;;;;;;;12.47;3.97;;;8.60;99.90;;;;;;5068566;28;20270;-80
2022/04/07 07:44:07;;;;;;;11.27;2.77;;;8.60;99.90;;;;;;5068918;28;20322;-81
2022/04/07 07:46:34;;;;;;;13.03;3.17;;;8.60;99.90;;;;;;5070757;28;20205;-80
2022/04/07 07:49:05;;;;;;;15.30;3.53;;;8.80;99.90;;;;;;5069810;28;20233;-78
2022/04/07 07:51:32;;;;;;;13.60;3.03;;;8.90;99.90;;;;;;5068887;28;20213;-80
2022/04/07 07:53:59;;;;;;;14.83;3.60;;;9.10;99.90;;;;;;5070284;28;20213;-78
2022/04/07 07:56:26;;;;;;;17.27;4.47;;;9.30;99.90;;;;;;5086784;28;20460;-82
2022/04/07 07:58:54;;;;;;;13.00;2.67;;;9.50;99.90;;;;;;5073486;28;20220;-80
2022/04/07 08:01:21;;;;;;;17.00;3.40;;;9.50;99.90;;;;;;5068208;28;20685;-79
2022/04/07 08:03:48;;;;;;;16.20;3.67;;;9.60;99.90;;;;;;5070198;28;20204;-82
2022/04/07 08:06:15;;;;;;;14.03;3.10;;;9.70;99.90;;;;;;5069013;28;20331;-82
2022/04/07 08:08:41;;;;;;;17.47;3.83;;;9.90;99.90;;;;;;5068251;28;20232;-81
2022/04/07 08:11:09;;;;;;;16.43;4.50;;;10.10;99.90;;;;;;5068819;28;20209;-81
2022/04/07 08:13:36;;;;;;;16.80;3.03;;;10.30;99.90;;;;;;5068460;28;20236;-80
2022/04/07 08:16:05;;;;;;;14.23;3.30;;;10.40;99.90;;;;;;5069003;28;20185;-80
2022/04/07 08:18:32;;;;;;;12.20;3.07;;;10.50;99.90;;;;;;5078992;28;20724;-84
2022/04/07 08:20:58;;;;;;;15.17;3.63;;;10.60;99.90;;;;;;5069855;28;20572;-83
2022/04/07 08:23:25;;;;;;;16.83;3.80;;;10.70;99.90;;;;;;5068818;28;20212;-81
2022/04/07 08:25:52;;;;;;;22.43;4.97;;;10.80;99.90;;;;;;5070523;28;20209;-83
2022/04/07 08:28:18;;;;;;;21.80;4.83;;;10.90;99.90;;;;;;5068457;28;20201;-82
2022/04/07 08:30:45;;;;;;;18.37;5.03;;;11.10;99.90;;;;;;5066748;28;20208;-79
2022/04/07 08:33:13;;;;;;;18.53;5.20;;;11.20;99.90;;;;;;5066716;28;20219;-80
2022/04/07 08:35:40;;;;;;;22.93;5.93;;;11.20;99.90;;;;;;5067151;28;20208;-85
2022/04/07 08:38:09;;;;;;;20.10;4.57;;;11.20;99.90;;;;;;5064986;28;20216;-79
2022/04/07 08:40:37;;;;;;;13.93;4.57;;;11.30;99.90;;;;;;5081250;28;20273;-80
2022/04/07 08:43:04;;;;;;;18.30;4.47;;;11.30;99.90;;;;;;5091161;23;20295;-79
2022/04/07 08:45:31;;;;;;;20.80;5.27;;;11.30;99.90;;;;;;5084849;28;20208;-80
2022/04/07 08:47:58;;;;;;;23.20;5.23;;;11.40;99.90;;;;;;5082417;28;20213;-81
2022/04/07 08:50:28;;;;;;;21.50;5.03;;;11.40;99.90;;;;;;5086063;28;20231;-80
2022/04/07 08:52:55;;;;;;;19.93;5.30;;;11.60;99.90;;;;;;5076571;28;20269;-80
2022/04/07 08:55:22;;;;;;;20.73;5.07;;;11.70;99.90;;;;;;5066295;28;20212;-80
2022/04/07 08:57:49;;;;;;;16.80;4.63;;;12.00;99.90;;;;;;5065753;28;20216;-79
2022/04/07 09:00:17;;;;;;;23.23;5.30;;;12.30;99.90;;;;;;5065498;28;20210;-83
2022/04/07 09:02:44;;;;;;;18.30;5.70;;;12.50;99.90;;;;;;5071270;28;20213;-80
2022/04/07 09:05:12;;;;;;;27.13;5.47;;;12.70;99.90;;;;;;5085486;28;20737;-79
2022/04/07 09:07:41;;;;;;;23.87;5.07;;;13.00;99.90;;;;;;5084346;28;20228;-82
2022/04/07 09:10:09;;;;;;;17.97;4.57;;;13.00;99.90;;;;;;5086501;28;20220;-80
2022/04/07 09:12:38;;;;;;;19.97;5.27;;;13.00;99.90;;;;;;5085770;28;20566;-80
2022/04/07 09:15:06;;;;;;;22.33;5.50;;;13.00;99.90;;;;;;5085624;28;20219;-78
2022/04/07 09:17:34;;;;;;;16.23;4.70;;;13.00;99.90;;;;;;5084200;28;20208;-80
2022/04/07 09:20:00;;;;;;;15.50;4.80;;;12.90;99.90;;;;;;5085915;28;20607;-81
2022/04/07 09:22:31;;;;;;;20.37;6.10;;;12.80;99.90;;;;;;5084699;28;20838;-79
2022/04/07 09:25:05;;;;;;;24.13;5.63;;;12.60;99.90;;;;;;5084390;28;20212;-80
2022/04/07 09:27:32;;;;;;;19.40;5.10;;;12.40;99.90;;;;;;5086277;28;20684;-79
2022/04/07 09:30:00;;;;;;;29.90;7.83;;;12.30;99.90;;;;;;5085035;28;20323;-79
2022/04/07 09:32:28;;;;;;;23.53;6.10;;;12.20;99.90;;;;;;5064703;28;20217;-81
2022/04/07 09:34:55;;;;;;;25.00;5.83;;;12.00;99.90;;;;;;5064783;28;20209;-80
2022/04/07 09:37:23;;;;;;;23.70;5.07;;;11.90;99.90;;;;;;5064234;28;20217;-80
2022/04/07 09:39:51;;;;;;;20.60;5.90;;;11.80;99.90;;;;;;5065488;28;20209;-80
2022/04/07 09:42:25;;;;;;;18.03;4.43;;;11.70;99.90;;;;;;5066478;28;20212;-81
2022/04/07 09:44:54;;;;;;;21.80;5.87;;;11.50;99.90;;;;;;5066178;28;20240;-81
2022/04/07 09:47:22;;;;;;;25.57;5.73;;;11.30;99.90;;;;;;5067783;28;20221;-80
2022/04/07 09:49:49;;;;;;;23.03;6.10;;;11.20;99.90;;;;;;5074358;28;20236;-84
2022/04/07 09:52:20;;;;;;;25.13;6.50;;;11.20;99.90;;;;;;5066496;28;20948;-82
2022/04/07 09:54:51;;;;;;;23.50;6.20;;;11.10;99.90;;;;;;5066239;28;20312;-81
2022/04/07 09:57:20;;;;;;;24.57;5.70;;;11.20;99.90;;;;;;5066329;28;20213;-84
2022/04/07 09:59:48;;;;;;;19.57;5.23;;;11.30;99.90;;;;;;5066233;28;20612;-81
2022/04/07 10:02:17;;;;;;;21.73;5.70;;;11.40;99.90;;;;;;5065075;28;20871;-80
2022/04/07 10:04:44;;;;;;;19.67;4.90;;;11.50;99.90;;;;;;5066821;28;20244;-80
2022/04/07 10:07:12;;;;;;;24.90;5.43;;;11.60;99.90;;;;;;5066528;28;20213;-82
2022/04/07 10:09:40;;;;;;;23.60;6.20;;;11.70;99.90;;;;;;5064158;28;20229;-82
2022/04/07 10:12:09;;;;;;;19.33;6.30;;;11.80;99.90;;;;;;5064683;28;20223;-81
2022/04/07 10:14:38;;;;;;;24.53;6.37;;;11.80;99.90;;;;;;5064263;28;20216;-80
2022/04/07 10:17:06;;;;;;;31.57;5.90;;;11.90;99.90;;;;;;5064993;28;20217;-80
2022/04/07 10:19:37;;;;;;;25.00;6.43;;;12.00;99.90;;;;;;5064461;28;20204;-81
2022/04/07 10:22:42;;;;;;;27.33;5.93;;;12.20;99.90;;;;;;5063720;28;20212;-79
2022/04/07 10:25:09;;;;;;;28.60;5.87;;;12.50;99.90;;;;;;5068920;28;20204;-80
2022/04/07 10:27:46;;;;;;;23.50;5.73;;;12.80;99.90;;;;;;5084774;28;20260;-79
2022/04/07 10:30:16;;;;;;;29.77;7.13;;;13.00;99.90;;;;;;5071192;28;20232;-80
2022/04/07 10:32:43;;;;;;;26.67;7.63;;;13.00;99.90;;;;;;5063848;28;20680;-79
2022/04/07 10:35:12;;;;;;;22.63;6.20;;;13.10;99.90;;;;;;5063364;28;20209;-78
2022/04/07 10:37:45;;;;;;;28.17;7.67;;;13.20;99.90;;;;;;5062017;28;20317;-78
2022/04/07 10:40:44;;;;;;;23.10;6.33;;;13.20;99.90;;;;;;5064113;28;20568;-78
2022/04/07 10:43:22;;;;;;;25.87;6.37;;;13.10;99.90;;;;;;5062503;28;20324;-78
2022/04/07 10:45:52;;;;;;;20.80;6.77;;;13.30;99.90;;;;;;5063476;28;20205;-79
2022/04/07 10:48:25;;;;;;;18.67;5.07;;;13.50;99.90;;;;;;5074472;28;20811;-78
2022/04/07 10:50:54;;;;;;;25.20;5.67;;;13.60;99.90;;;;;;5083669;28;20921;-80
2022/04/07 10:53:24;;;;;;;21.17;5.40;;;13.70;99.90;;;;;;5081516;28;20197;-78
2022/04/07 10:55:56;;;;;;;21.30;5.60;;;14.00;99.90;;;;;;5082926;28;20277;-79
2022/04/07 10:58:45;;;;;;;27.40;6.10;;;14.10;99.90;;;;;;5082067;28;20220;-78
2022/04/07 11:01:55;;;;;;;26.77;6.07;;;14.20;99.90;;;;;;5083584;28;20212;-77
2022/04/07 11:04:42;;;;;;;19.77;5.83;;;14.10;99.90;;;;;;5079797;28;20211;-79
2022/04/07 11:07:16;;;;;;;21.43;5.77;;;14.10;99.90;;;;;;5063232;28;20251;-80
2022/04/07 11:09:48;;;;;;;25.27;6.47;;;14.10;99.90;;;;;;5068136;28;20225;-79
2022/04/07 11:12:18;;;;;;;24.97;5.50;;;14.00;99.90;;;;;;5087211;28;20205;-77
2022/04/07 11:14:46;;;;;;;19.93;5.37;;;14.10;99.90;;;;;;5088553;28;20204;-78
2022/04/07 11:17:23;;;;;;;24.30;4.80;;;14.10;99.90;;;;;;5086523;28;20208;-78
2022/04/07 11:19:59;;;;;;;17.03;4.97;;;14.10;99.90;;;;;;5067650;28;20300;-79
2022/04/07 11:22:51;;;;;;;20.97;5.70;;;14.20;99.90;;;;;;5068535;28;20716;-83
2022/04/07 11:25:23;;;;;;;22.53;6.23;;;14.40;99.90;;;;;;5069771;28;20209;-79
2022/04/07 11:28:10;;;;;;;20.97;5.80;;;14.50;99.90;;;;;;5064111;28;20567;-77
2022/04/07 11:30:42;;;;;;;20.57;6.10;;;14.70;99.90;;;;;;5071616;28;20228;-76
2022/04/07 11:33:38;;;;;;;27.40;5.77;;;14.80;99.90;;;;;;5067760;28;22052;-78
2022/04/07 11:36:38;;;;;;;18.10;5.73;;;14.70;99.90;;;;;;5053540;28;20286;-80
2022/04/07 11:39:05;;;;;;;27.17;5.67;;;14.50;99.90;;;;;;5063781;28;20193;-78
2022/04/07 11:41:41;;;;;;;21.53;6.57;;;14.30;99.90;;;;;;5069992;28;20236;-79
2022/04/07 11:44:10;;;;;;;20.63;4.50;;;14.00;99.90;;;;;;5073346;28;20533;-79
2022/04/07 11:46:37;;;;;;;18.37;4.93;;;13.80;99.90;;;;;;5071617;28;20323;-79
2022/04/07 11:49:05;;;;;;;21.93;6.73;;;13.70;99.90;;;;;;5068797;28;20575;-79
2022/04/07 11:51:36;;;;;;;20.33;5.40;;;13.90;99.90;;;;;;5074947;28;20258;-78
2022/04/07 11:54:03;;;;;;;20.10;5.60;;;13.90;99.90;;;;;;5064830;28;20237;-80
2022/04/07 11:56:31;;;;;;;21.60;6.07;;;14.00;99.90;;;;;;5071813;28;20219;-80
2022/04/07 11:59:00;;;;;;;20.80;5.77;;;14.20;99.90;;;;;;5076506;28;20607;-78
2022/04/07 12:01:28;;;;;;;22.10;5.23;;;14.20;99.90;;;;;;5073276;28;20209;-77
2022/04/07 12:03:56;;;;;;;17.57;4.77;;;14.00;99.90;;;;;;5071299;28;20201;-77
2022/04/07 12:06:25;;;;;;;16.07;4.37;;;13.70;99.90;;;;;;5064977;28;20216;-80
2022/04/07 12:08:52;;;;;;;22.47;6.03;;;13.70;99.90;;;;;;5065849;28;20201;-77
2022/04/07 12:11:20;;;;;;;27.00;6.40;;;13.90;99.90;;;;;;5074321;28;20236;-77
2022/04/07 12:13:47;;;;;;;25.53;5.87;;;14.10;99.90;;;;;;5073385;28;20263;-79
2022/04/07 12:16:14;;;;;;;29.93;7.57;;;14.00;99.90;;;;;;5079032;28;20215;-82
2022/04/07 12:18:41;;;;;;;28.80;7.13;;;13.90;99.90;;;;;;5065138;28;20215;-80
2022/04/07 12:21:09;;;;;;;21.40;5.60;;;13.70;99.90;;;;;;5067339;28;20232;-80
2022/04/07 12:23:40;;;;;;;26.07;6.33;;;13.60;99.90;;;;;;5066609;28;20626;-81
2022/04/07 12:26:08;;;;;;;16.73;3.97;;;13.50;99.90;;;;;;5068029;28;20305;-81
2022/04/07 12:28:38;;;;;;;16.63;4.83;;;13.30;99.90;;;;;;5067735;28;20313;-80
2022/04/07 12:31:12;;;;;;;23.73;5.27;;;13.10;99.90;;;;;;5068577;28;20266;-80
2022/04/07 12:33:44;;;;;;;21.67;5.00;;;12.80;99.90;;;;;;5076113;28;20216;-81
2022/04/07 12:36:13;;;;;;;20.80;5.47;;;12.60;99.90;;;;;;5087125;28;20590;-80
2022/04/07 12:38:57;;;;;;;19.23;5.63;;;12.60;99.90;;;;;;5088198;28;20205;-81
2022/04/07 12:41:35;;;;;;;22.10;7.53;;;12.70;99.90;;;;;;5087303;28;20204;-84
2022/04/07 12:44:02;;;;;;;27.20;7.97;;;12.80;99.90;;;;;;5074372;28;20236;-80
2022/04/07 12:46:44;;;;;;;26.10;6.93;;;12.80;99.90;;;;;;5066650;28;20209;-81
2022/04/07 12:49:11;;;;;;;25.23;7.23;;;12.70;99.90;;;;;;5085203;28;20262;-77